sensor_id;sensor_type;location;lat;lon;timestamp;P1;durP1;ratioP1;P2;durP2;ratioP2
37087;SDS011;23002;52.676;6.432;2023-03-30T00:02:26;5.43;;;2.60;;
37087;SDS011;23002;52.676;6.432;2023-03-30T00:05:03;4.88;;;2.40;;
37087;SDS011;23002;52.676;6.432;2023-03-30T00:07:31;6.20;;;2.10;;
37087;SDS011;23002;52.676;6.432;2023-03-30T00:09:58;6.45;;;2.60;;
37087;SDS011;23002;52.676;6.432;2023-03-30T00:12:29;9.23;;;3.03;;
37087;SDS011;23002;52.676;6.432;2023-03-30T00:14:56;4.90;;;2.55;;
37087;SDS011;23002;52.676;6.432;2023-03-30T00:17:23;4.30;;;2.40;;
37087;SDS011;23002;52.676;6.432;2023-03-30T00:19:51;5.38;;;2.83;;
37087;SDS011;23002;52.676;6.432;2023-03-30T00:22:18;7.15;;;2.67;;
37087;SDS011;23002;52.676;6.432;2023-03-30T00:24:45;4.80;;;2.53;;
37087;SDS011;23002;52.676;6.432;2023-03-30T00:27:12;10.77;;;2.78;;
37087;SDS011;23002;52.676;6.432;2023-03-30T00:29:39;5.22;;;2.92;;
37087;SDS011;23002;52.676;6.432;2023-03-30T00:32:06;5.28;;;2.40;;
37087;SDS011;23002;52.676;6.432;2023-03-30T00:34:33;3.65;;;2.40;;
37087;SDS011;23002;52.676;6.432;2023-03-30T00:37:00;8.15;;;2.70;;
37087;SDS011;23002;52.676;6.432;2023-03-30T00:39:28;6.22;;;3.30;;
37087;SDS011;23002;52.676;6.432;2023-03-30T00:41:55;5.07;;;2.58;;
37087;SDS011;23002;52.676;6.432;2023-03-30T00:47:08;5.13;;;2.55;;
37087;SDS011;23002;52.676;6.432;2023-03-30T00:49:35;4.60;;;2.35;;
37087;SDS011;23002;52.676;6.432;2023-03-30T00:52:03;6.22;;;2.60;;
37087;SDS011;23002;52.676;6.432;2023-03-30T00:54:30;3.95;;;2.45;;
37087;SDS011;23002;52.676;6.432;2023-03-30T00:56:57;4.28;;;2.17;;
37087;SDS011;23002;52.676;6.432;2023-03-30T00:59:24;5.15;;;2.60;;
37087;SDS011;23002;52.676;6.432;2023-03-30T01:01:51;5.72;;;2.25;;
37087;SDS011;23002;52.676;6.432;2023-03-30T01:04:18;6.18;;;2.58;;
37087;SDS011;23002;52.676;6.432;2023-03-30T01:06:46;5.53;;;2.28;;
37087;SDS011;23002;52.676;6.432;2023-03-30T01:09:14;4.93;;;2.28;;
37087;SDS011;23002;52.676;6.432;2023-03-30T01:11:42;8.75;;;2.53;;
37087;SDS011;23002;52.676;6.432;2023-03-30T01:14:10;4.40;;;2.13;;
37087;SDS011;23002;52.676;6.432;2023-03-30T01:24:49;6.10;;;2.25;;
37087;SDS011;23002;52.676;6.432;2023-03-30T01:32:40;7.90;;;2.65;;
37087;SDS011;23002;52.676;6.432;2023-03-30T01:46:00;4.38;;;2.10;;
37087;SDS011;23002;52.676;6.432;2023-03-30T01:51:04;4.03;;;1.95;;
37087;SDS011;23002;52.676;6.432;2023-03-30T01:53:43;6.82;;;2.97;;
37087;SDS011;23002;52.676;6.432;2023-03-30T01:56:12;5.50;;;2.80;;
37087;SDS011;23002;52.676;6.432;2023-03-30T01:58:51;5.25;;;2.65;;
37087;SDS011;23002;52.676;6.432;2023-03-30T02:01:19;4.45;;;2.60;;
37087;SDS011;23002;52.676;6.432;2023-03-30T02:03:48;3.47;;;2.05;;
37087;SDS011;23002;52.676;6.432;2023-03-30T02:06:19;2.40;;;1.50;;
37087;SDS011;23002;52.676;6.432;2023-03-30T02:08:49;3.60;;;1.90;;
37087;SDS011;23002;52.676;6.432;2023-03-30T02:11:17;4.25;;;1.67;;
37087;SDS011;23002;52.676;6.432;2023-03-30T02:13:44;4.40;;;1.85;;
37087;SDS011;23002;52.676;6.432;2023-03-30T02:16:14;9.63;;;1.40;;
37087;SDS011;23002;52.676;6.432;2023-03-30T02:18:42;5.85;;;1.50;;
37087;SDS011;23002;52.676;6.432;2023-03-30T02:21:10;2.53;;;1.33;;
37087;SDS011;23002;52.676;6.432;2023-03-30T02:23:38;6.38;;;1.38;;
37087;SDS011;23002;52.676;6.432;2023-03-30T02:26:09;2.97;;;1.23;;
37087;SDS011;23002;52.676;6.432;2023-03-30T02:28:36;4.85;;;1.50;;
37087;SDS011;23002;52.676;6.432;2023-03-30T02:31:03;3.55;;;1.30;;
37087;SDS011;23002;52.676;6.432;2023-03-30T02:41:18;3.85;;;1.30;;
37087;SDS011;23002;52.676;6.432;2023-03-30T02:43:59;5.40;;;1.42;;
37087;SDS011;23002;52.676;6.432;2023-03-30T02:47:32;6.82;;;1.60;;
37087;SDS011;23002;52.676;6.432;2023-03-30T02:49:36;4.10;;;1.35;;
37087;SDS011;23002;52.676;6.432;2023-03-30T02:52:17;4.57;;;1.70;;
37087;SDS011;23002;52.676;6.432;2023-03-30T02:54:54;9.55;;;1.40;;
37087;SDS011;23002;52.676;6.432;2023-03-30T02:57:33;2.63;;;1.33;;
37087;SDS011;23002;52.676;6.432;2023-03-30T03:00:07;2.90;;;1.08;;
37087;SDS011;23002;52.676;6.432;2023-03-30T03:02:38;3.42;;;1.40;;
37087;SDS011;23002;52.676;6.432;2023-03-30T03:05:06;4.00;;;1.10;;
37087;SDS011;23002;52.676;6.432;2023-03-30T03:07:34;3.30;;;1.50;;
37087;SDS011;23002;52.676;6.432;2023-03-30T03:10:03;2.78;;;1.30;;
37087;SDS011;23002;52.676;6.432;2023-03-30T03:12:31;3.30;;;1.58;;
37087;SDS011;23002;52.676;6.432;2023-03-30T03:14:58;4.72;;;1.60;;
37087;SDS011;23002;52.676;6.432;2023-03-30T03:17:30;4.07;;;1.20;;
37087;SDS011;23002;52.676;6.432;2023-03-30T03:20:00;4.13;;;1.20;;
37087;SDS011;23002;52.676;6.432;2023-03-30T03:22:28;2.10;;;1.25;;
37087;SDS011;23002;52.676;6.432;2023-03-30T03:24:56;2.45;;;1.25;;
37087;SDS011;23002;52.676;6.432;2023-03-30T03:27:23;5.60;;;1.40;;
37087;SDS011;23002;52.676;6.432;2023-03-30T03:29:50;2.08;;;1.25;;
37087;SDS011;23002;52.676;6.432;2023-03-30T03:32:17;2.53;;;1.30;;
37087;SDS011;23002;52.676;6.432;2023-03-30T03:34:45;23.83;;;1.63;;
37087;SDS011;23002;52.676;6.432;2023-03-30T03:37:12;3.28;;;1.23;;
37087;SDS011;23002;52.676;6.432;2023-03-30T03:39:39;5.28;;;1.00;;
37087;SDS011;23002;52.676;6.432;2023-03-30T03:42:06;2.83;;;1.00;;
37087;SDS011;23002;52.676;6.432;2023-03-30T03:44:33;3.35;;;1.20;;
37087;SDS011;23002;52.676;6.432;2023-03-30T03:47:02;3.90;;;1.00;;
37087;SDS011;23002;52.676;6.432;2023-03-30T03:49:29;3.40;;;1.52;;
37087;SDS011;23002;52.676;6.432;2023-03-30T03:51:56;4.47;;;1.55;;
37087;SDS011;23002;52.676;6.432;2023-03-30T03:54:24;4.22;;;1.27;;
37087;SDS011;23002;52.676;6.432;2023-03-30T03:56:51;2.25;;;1.08;;
37087;SDS011;23002;52.676;6.432;2023-03-30T03:59:18;3.45;;;1.13;;
37087;SDS011;23002;52.676;6.432;2023-03-30T04:01:45;4.53;;;1.00;;
37087;SDS011;23002;52.676;6.432;2023-03-30T04:04:12;1.98;;;0.90;;
37087;SDS011;23002;52.676;6.432;2023-03-30T04:06:40;4.72;;;1.20;;
37087;SDS011;23002;52.676;6.432;2023-03-30T04:09:07;5.28;;;1.30;;
37087;SDS011;23002;52.676;6.432;2023-03-30T04:11:34;2.78;;;1.50;;
37087;SDS011;23002;52.676;6.432;2023-03-30T04:14:02;5.20;;;1.50;;
37087;SDS011;23002;52.676;6.432;2023-03-30T04:16:29;5.75;;;1.40;;
37087;SDS011;23002;52.676;6.432;2023-03-30T04:18:56;2.28;;;1.17;;
37087;SDS011;23002;52.676;6.432;2023-03-30T04:21:24;4.15;;;1.50;;
37087;SDS011;23002;52.676;6.432;2023-03-30T04:23:54;5.55;;;1.83;;
37087;SDS011;23002;52.676;6.432;2023-03-30T04:26:21;2.28;;;1.20;;
37087;SDS011;23002;52.676;6.432;2023-03-30T04:28:49;3.03;;;1.90;;
37087;SDS011;23002;52.676;6.432;2023-03-30T04:31:18;4.00;;;1.70;;
37087;SDS011;23002;52.676;6.432;2023-03-30T04:33:47;2.92;;;1.48;;
37087;SDS011;23002;52.676;6.432;2023-03-30T04:36:19;4.05;;;1.42;;
37087;SDS011;23002;52.676;6.432;2023-03-30T04:38:46;2.78;;;1.15;;
37087;SDS011;23002;52.676;6.432;2023-03-30T04:41:26;3.15;;;1.45;;
37087;SDS011;23002;52.676;6.432;2023-03-30T04:43:59;3.33;;;1.20;;
37087;SDS011;23002;52.676;6.432;2023-03-30T04:46:27;4.55;;;1.40;;
37087;SDS011;23002;52.676;6.432;2023-03-30T04:48:54;2.42;;;1.33;;
37087;SDS011;23002;52.676;6.432;2023-03-30T04:51:22;2.40;;;1.40;;
37087;SDS011;23002;52.676;6.432;2023-03-30T04:53:49;3.03;;;1.45;;
37087;SDS011;23002;52.676;6.432;2023-03-30T04:56:16;3.65;;;1.80;;
37087;SDS011;23002;52.676;6.432;2023-03-30T04:58:43;2.38;;;1.27;;
37087;SDS011;23002;52.676;6.432;2023-03-30T05:01:10;2.88;;;1.15;;
37087;SDS011;23002;52.676;6.432;2023-03-30T05:03:37;4.30;;;1.33;;
37087;SDS011;23002;52.676;6.432;2023-03-30T05:06:05;5.88;;;1.20;;
37087;SDS011;23002;52.676;6.432;2023-03-30T05:08:32;3.88;;;2.08;;
37087;SDS011;23002;52.676;6.432;2023-03-30T05:11:01;1.95;;;1.23;;
37087;SDS011;23002;52.676;6.432;2023-03-30T05:13:30;4.32;;;1.25;;
37087;SDS011;23002;52.676;6.432;2023-03-30T05:15:57;2.20;;;1.05;;
37087;SDS011;23002;52.676;6.432;2023-03-30T05:18:24;3.00;;;1.27;;
37087;SDS011;23002;52.676;6.432;2023-03-30T05:20:54;3.03;;;1.05;;
37087;SDS011;23002;52.676;6.432;2023-03-30T05:23:21;3.10;;;1.00;;
37087;SDS011;23002;52.676;6.432;2023-03-30T05:25:49;3.20;;;0.95;;
37087;SDS011;23002;52.676;6.432;2023-03-30T05:28:16;2.85;;;1.10;;
37087;SDS011;23002;52.676;6.432;2023-03-30T05:30:43;3.33;;;1.15;;
37087;SDS011;23002;52.676;6.432;2023-03-30T05:33:12;3.28;;;1.25;;
37087;SDS011;23002;52.676;6.432;2023-03-30T05:35:39;3.05;;;1.15;;
37087;SDS011;23002;52.676;6.432;2023-03-30T05:38:06;5.50;;;1.00;;
37087;SDS011;23002;52.676;6.432;2023-03-30T05:40:33;2.97;;;1.45;;
37087;SDS011;23002;52.676;6.432;2023-03-30T05:43:00;3.22;;;1.58;;
37087;SDS011;23002;52.676;6.432;2023-03-30T05:45:27;2.33;;;0.90;;
37087;SDS011;23002;52.676;6.432;2023-03-30T05:47:54;4.15;;;0.98;;
37087;SDS011;23002;52.676;6.432;2023-03-30T05:50:22;2.97;;;1.75;;
37087;SDS011;23002;52.676;6.432;2023-03-30T05:52:50;2.88;;;1.50;;
37087;SDS011;23002;52.676;6.432;2023-03-30T05:55:17;2.83;;;1.00;;
37087;SDS011;23002;52.676;6.432;2023-03-30T05:57:44;2.53;;;1.05;;
37087;SDS011;23002;52.676;6.432;2023-03-30T06:00:11;3.85;;;1.55;;
37087;SDS011;23002;52.676;6.432;2023-03-30T06:02:40;6.35;;;1.40;;
37087;SDS011;23002;52.676;6.432;2023-03-30T06:05:07;5.75;;;1.48;;
37087;SDS011;23002;52.676;6.432;2023-03-30T06:07:34;2.38;;;1.00;;
37087;SDS011;23002;52.676;6.432;2023-03-30T06:10:03;2.97;;;0.95;;
37087;SDS011;23002;52.676;6.432;2023-03-30T06:12:31;2.40;;;1.17;;
37087;SDS011;23002;52.676;6.432;2023-03-30T06:14:58;6.15;;;1.50;;
37087;SDS011;23002;52.676;6.432;2023-03-30T06:17:28;2.08;;;0.98;;
37087;SDS011;23002;52.676;6.432;2023-03-30T06:19:55;2.17;;;0.93;;
37087;SDS011;23002;52.676;6.432;2023-03-30T06:22:22;2.80;;;1.38;;
37087;SDS011;23002;52.676;6.432;2023-03-30T06:24:51;2.28;;;0.60;;
37087;SDS011;23002;52.676;6.432;2023-03-30T06:27:18;3.08;;;0.80;;
37087;SDS011;23002;52.676;6.432;2023-03-30T06:29:46;4.00;;;1.00;;
37087;SDS011;23002;52.676;6.432;2023-03-30T06:32:13;4.38;;;0.80;;
37087;SDS011;23002;52.676;6.432;2023-03-30T06:34:40;1.77;;;0.95;;
37087;SDS011;23002;52.676;6.432;2023-03-30T06:37:08;3.10;;;0.90;;
37087;SDS011;23002;52.676;6.432;2023-03-30T06:39:35;4.07;;;1.17;;
37087;SDS011;23002;52.676;6.432;2023-03-30T06:42:03;3.30;;;1.10;;
37087;SDS011;23002;52.676;6.432;2023-03-30T06:44:31;5.15;;;1.25;;
37087;SDS011;23002;52.676;6.432;2023-03-30T06:46:59;4.65;;;1.20;;
37087;SDS011;23002;52.676;6.432;2023-03-30T06:49:26;3.45;;;1.20;;
37087;SDS011;23002;52.676;6.432;2023-03-30T06:51:54;4.85;;;1.40;;
37087;SDS011;23002;52.676;6.432;2023-03-30T06:54:21;7.53;;;1.83;;
37087;SDS011;23002;52.676;6.432;2023-03-30T06:56:48;8.30;;;2.13;;
37087;SDS011;23002;52.676;6.432;2023-03-30T06:59:15;2.10;;;1.13;;
37087;SDS011;23002;52.676;6.432;2023-03-30T07:01:42;2.63;;;1.20;;
37087;SDS011;23002;52.676;6.432;2023-03-30T07:04:10;5.18;;;1.50;;
37087;SDS011;23002;52.676;6.432;2023-03-30T07:06:37;3.63;;;1.13;;
37087;SDS011;23002;52.676;6.432;2023-03-30T07:09:04;3.13;;;1.00;;
37087;SDS011;23002;52.676;6.432;2023-03-30T07:11:31;5.18;;;1.42;;
37087;SDS011;23002;52.676;6.432;2023-03-30T07:13:58;2.92;;;0.93;;
37087;SDS011;23002;52.676;6.432;2023-03-30T07:16:26;8.77;;;1.45;;
37087;SDS011;23002;52.676;6.432;2023-03-30T07:18:53;6.43;;;0.80;;
37087;SDS011;23002;52.676;6.432;2023-03-30T07:21:21;3.13;;;1.10;;
37087;SDS011;23002;52.676;6.432;2023-03-30T07:23:48;6.00;;;2.17;;
37087;SDS011;23002;52.676;6.432;2023-03-30T07:26:16;4.07;;;1.27;;
37087;SDS011;23002;52.676;6.432;2023-03-30T07:28:43;1.95;;;0.90;;
37087;SDS011;23002;52.676;6.432;2023-03-30T07:31:12;7.10;;;1.08;;
37087;SDS011;23002;52.676;6.432;2023-03-30T07:33:39;9.23;;;1.65;;
37087;SDS011;23002;52.676;6.432;2023-03-30T07:36:07;10.15;;;1.60;;
37087;SDS011;23002;52.676;6.432;2023-03-30T07:38:34;6.13;;;1.60;;
37087;SDS011;23002;52.676;6.432;2023-03-30T07:41:05;9.40;;;2.10;;
37087;SDS011;23002;52.676;6.432;2023-03-30T07:43:32;4.78;;;1.20;;
37087;SDS011;23002;52.676;6.432;2023-03-30T07:45:59;5.57;;;1.50;;
37087;SDS011;23002;52.676;6.432;2023-03-30T07:48:26;7.32;;;1.73;;
37087;SDS011;23002;52.676;6.432;2023-03-30T07:51:00;8.52;;;1.40;;
37087;SDS011;23002;52.676;6.432;2023-03-30T07:53:28;8.20;;;1.40;;
37087;SDS011;23002;52.676;6.432;2023-03-30T07:55:55;7.80;;;1.55;;
37087;SDS011;23002;52.676;6.432;2023-03-30T07:58:22;6.65;;;1.35;;
37087;SDS011;23002;52.676;6.432;2023-03-30T08:00:50;6.20;;;1.23;;
37087;SDS011;23002;52.676;6.432;2023-03-30T08:03:19;6.25;;;1.35;;
37087;SDS011;23002;52.676;6.432;2023-03-30T08:05:53;5.45;;;1.52;;
37087;SDS011;23002;52.676;6.432;2023-03-30T08:08:21;8.07;;;1.42;;
37087;SDS011;23002;52.676;6.432;2023-03-30T08:10:48;7.95;;;1.77;;
37087;SDS011;23002;52.676;6.432;2023-03-30T08:13:15;10.48;;;2.00;;
37087;SDS011;23002;52.676;6.432;2023-03-30T08:15:45;9.57;;;2.03;;
37087;SDS011;23002;52.676;6.432;2023-03-30T08:18:12;10.95;;;2.28;;
37087;SDS011;23002;52.676;6.432;2023-03-30T08:20:40;4.13;;;2.03;;
37087;SDS011;23002;52.676;6.432;2023-03-30T08:23:08;6.85;;;1.52;;
37087;SDS011;23002;52.676;6.432;2023-03-30T08:25:35;9.80;;;1.45;;
37087;SDS011;23002;52.676;6.432;2023-03-30T08:28:03;8.32;;;2.28;;
37087;SDS011;23002;52.676;6.432;2023-03-30T08:30:34;9.43;;;1.80;;
37087;SDS011;23002;52.676;6.432;2023-03-30T08:33:01;11.38;;;2.15;;
37087;SDS011;23002;52.676;6.432;2023-03-30T08:35:28;9.82;;;1.60;;
37087;SDS011;23002;52.676;6.432;2023-03-30T08:37:55;7.78;;;1.70;;
37087;SDS011;23002;52.676;6.432;2023-03-30T08:40:22;6.60;;;1.60;;
37087;SDS011;23002;52.676;6.432;2023-03-30T08:42:53;11.35;;;1.92;;
37087;SDS011;23002;52.676;6.432;2023-03-30T08:45:22;9.40;;;2.08;;
37087;SDS011;23002;52.676;6.432;2023-03-30T08:47:50;10.80;;;2.00;;
37087;SDS011;23002;52.676;6.432;2023-03-30T08:50:24;9.30;;;2.13;;
37087;SDS011;23002;52.676;6.432;2023-03-30T08:52:53;7.47;;;2.67;;
37087;SDS011;23002;52.676;6.432;2023-03-30T08:55:28;6.45;;;1.80;;
37087;SDS011;23002;52.676;6.432;2023-03-30T08:57:58;12.85;;;2.30;;
37087;SDS011;23002;52.676;6.432;2023-03-30T09:05:54;7.95;;;1.98;;
37087;SDS011;23002;52.676;6.432;2023-03-30T09:08:23;8.27;;;1.52;;
37087;SDS011;23002;52.676;6.432;2023-03-30T09:11:00;4.78;;;1.20;;
37087;SDS011;23002;52.676;6.432;2023-03-30T09:13:33;3.03;;;1.25;;
37087;SDS011;23002;52.676;6.432;2023-03-30T09:18:40;6.15;;;1.10;;
37087;SDS011;23002;52.676;6.432;2023-03-30T09:21:08;5.55;;;1.98;;
37087;SDS011;23002;52.676;6.432;2023-03-30T09:23:36;8.25;;;1.00;;
37087;SDS011;23002;52.676;6.432;2023-03-30T09:26:22;7.80;;;1.58;;
37087;SDS011;23002;52.676;6.432;2023-03-30T09:31:24;6.40;;;1.23;;
37087;SDS011;23002;52.676;6.432;2023-03-30T09:34:10;6.20;;;1.52;;
37087;SDS011;23002;52.676;6.432;2023-03-30T09:36:43;8.15;;;1.40;;
37087;SDS011;23002;52.676;6.432;2023-03-30T09:39:19;7.90;;;1.20;;
37087;SDS011;23002;52.676;6.432;2023-03-30T09:42:08;5.20;;;1.00;;
37087;SDS011;23002;52.676;6.432;2023-03-30T09:44:46;7.35;;;1.65;;
37087;SDS011;23002;52.676;6.432;2023-03-30T09:47:24;6.13;;;1.25;;
37087;SDS011;23002;52.676;6.432;2023-03-30T09:49:55;4.55;;;1.17;;
37087;SDS011;23002;52.676;6.432;2023-03-30T09:52:24;7.35;;;1.40;;
37087;SDS011;23002;52.676;6.432;2023-03-30T09:54:51;6.35;;;1.05;;
37087;SDS011;23002;52.676;6.432;2023-03-30T09:57:26;8.50;;;1.08;;
37087;SDS011;23002;52.676;6.432;2023-03-30T09:59:53;4.45;;;1.33;;
37087;SDS011;23002;52.676;6.432;2023-03-30T10:02:23;11.02;;;1.73;;
37087;SDS011;23002;52.676;6.432;2023-03-30T10:07:36;6.50;;;1.33;;
37087;SDS011;23002;52.676;6.432;2023-03-30T10:12:55;4.93;;;1.17;;
37087;SDS011;23002;52.676;6.432;2023-03-30T10:15:23;9.93;;;1.80;;
37087;SDS011;23002;52.676;6.432;2023-03-30T10:17:57;8.27;;;1.42;;
37087;SDS011;23002;52.676;6.432;2023-03-30T10:20:33;9.13;;;1.75;;
37087;SDS011;23002;52.676;6.432;2023-03-30T10:23:05;6.90;;;2.05;;
37087;SDS011;23002;52.676;6.432;2023-03-30T10:25:39;9.13;;;1.27;;
37087;SDS011;23002;52.676;6.432;2023-03-30T10:28:14;6.45;;;1.42;;
37087;SDS011;23002;52.676;6.432;2023-03-30T10:30:48;4.35;;;1.08;;
37087;SDS011;23002;52.676;6.432;2023-03-30T10:33:15;4.82;;;1.27;;
37087;SDS011;23002;52.676;6.432;2023-03-30T10:35:42;2.92;;;1.08;;
37087;SDS011;23002;52.676;6.432;2023-03-30T10:38:13;6.85;;;1.73;;
37087;SDS011;23002;52.676;6.432;2023-03-30T10:40:41;6.30;;;0.90;;
37087;SDS011;23002;52.676;6.432;2023-03-30T10:43:29;7.43;;;1.20;;
37087;SDS011;23002;52.676;6.432;2023-03-30T10:45:57;4.18;;;0.65;;
37087;SDS011;23002;52.676;6.432;2023-03-30T10:48:50;3.28;;;0.63;;
37087;SDS011;23002;52.676;6.432;2023-03-30T10:51:24;3.78;;;0.80;;
37087;SDS011;23002;52.676;6.432;2023-03-30T10:54:08;3.55;;;1.17;;
37087;SDS011;23002;52.676;6.432;2023-03-30T10:56:46;4.38;;;0.80;;
37087;SDS011;23002;52.676;6.432;2023-03-30T11:04:41;5.57;;;1.80;;
37087;SDS011;23002;52.676;6.432;2023-03-30T11:07:12;7.57;;;1.33;;
37087;SDS011;23002;52.676;6.432;2023-03-30T11:09:41;3.78;;;1.00;;
37087;SDS011;23002;52.676;6.432;2023-03-30T11:12:11;4.38;;;1.00;;
37087;SDS011;23002;52.676;6.432;2023-03-30T11:17:09;7.32;;;0.88;;
37087;SDS011;23002;52.676;6.432;2023-03-30T11:19:47;8.25;;;1.30;;
37087;SDS011;23002;52.676;6.432;2023-03-30T11:22:25;11.25;;;1.63;;
37087;SDS011;23002;52.676;6.432;2023-03-30T11:24:58;7.43;;;1.30;;
37087;SDS011;23002;52.676;6.432;2023-03-30T11:27:34;8.50;;;1.50;;
37087;SDS011;23002;52.676;6.432;2023-03-30T11:30:18;6.35;;;1.55;;
37087;SDS011;23002;52.676;6.432;2023-03-30T11:35:35;8.82;;;1.80;;
37087;SDS011;23002;52.676;6.432;2023-03-30T11:38:09;4.47;;;1.42;;
37087;SDS011;23002;52.676;6.432;2023-03-30T11:40:43;8.20;;;1.10;;
37087;SDS011;23002;52.676;6.432;2023-03-30T11:43:11;5.10;;;1.65;;
37087;SDS011;23002;52.676;6.432;2023-03-30T11:45:54;7.28;;;1.48;;
37087;SDS011;23002;52.676;6.432;2023-03-30T11:48:38;10.18;;;1.70;;
37087;SDS011;23002;52.676;6.432;2023-03-30T11:51:16;3.45;;;0.77;;
37087;SDS011;23002;52.676;6.432;2023-03-30T11:56:36;5.22;;;1.30;;
37087;SDS011;23002;52.676;6.432;2023-03-30T11:59:08;10.55;;;1.40;;
37087;SDS011;23002;52.676;6.432;2023-03-30T12:04:15;5.32;;;1.02;;
37087;SDS011;23002;52.676;6.432;2023-03-30T12:06:49;4.35;;;0.68;;
37087;SDS011;23002;52.676;6.432;2023-03-30T12:11:46;8.45;;;1.10;;
37087;SDS011;23002;52.676;6.432;2023-03-30T12:14:27;9.00;;;1.60;;
37087;SDS011;23002;52.676;6.432;2023-03-30T12:19:24;7.03;;;0.85;;
37087;SDS011;23002;52.676;6.432;2023-03-30T12:21:56;2.65;;;0.80;;
37087;SDS011;23002;52.676;6.432;2023-03-30T12:24:29;5.60;;;1.20;;
37087;SDS011;23002;52.676;6.432;2023-03-30T12:26:59;10.02;;;1.25;;
37087;SDS011;23002;52.676;6.432;2023-03-30T12:32:28;5.82;;;1.33;;
37087;SDS011;23002;52.676;6.432;2023-03-30T12:34:56;9.32;;;1.33;;
37087;SDS011;23002;52.676;6.432;2023-03-30T12:37:34;7.40;;;1.00;;
37087;SDS011;23002;52.676;6.432;2023-03-30T12:40:06;4.40;;;0.88;;
37087;SDS011;23002;52.676;6.432;2023-03-30T12:42:39;9.40;;;1.38;;
37087;SDS011;23002;52.676;6.432;2023-03-30T12:47:56;8.57;;;1.23;;
37087;SDS011;23002;52.676;6.432;2023-03-30T12:50:30;5.97;;;1.33;;
37087;SDS011;23002;52.676;6.432;2023-03-30T13:03:45;8.15;;;1.48;;
37087;SDS011;23002;52.676;6.432;2023-03-30T13:06:29;10.38;;;1.25;;
37087;SDS011;23002;52.676;6.432;2023-03-30T13:11:44;7.45;;;1.13;;
37087;SDS011;23002;52.676;6.432;2023-03-30T13:24:41;10.43;;;1.05;;
37087;SDS011;23002;52.676;6.432;2023-03-30T13:29:39;10.30;;;1.50;;
37087;SDS011;23002;52.676;6.432;2023-03-30T13:40:26;11.75;;;1.60;;
37087;SDS011;23002;52.676;6.432;2023-03-30T13:45:46;9.23;;;1.70;;
37087;SDS011;23002;52.676;6.432;2023-03-30T13:50:55;14.75;;;1.92;;
37087;SDS011;23002;52.676;6.432;2023-03-30T13:53:23;6.13;;;1.50;;
37087;SDS011;23002;52.676;6.432;2023-03-30T13:55:52;8.05;;;1.35;;
37087;SDS011;23002;52.676;6.432;2023-03-30T13:58:25;7.47;;;1.77;;
37087;SDS011;23002;52.676;6.432;2023-03-30T14:00:55;13.18;;;2.05;;
37087;SDS011;23002;52.676;6.432;2023-03-30T14:03:30;9.63;;;1.58;;
37087;SDS011;23002;52.676;6.432;2023-03-30T14:06:03;9.90;;;1.58;;
37087;SDS011;23002;52.676;6.432;2023-03-30T14:08:37;6.85;;;1.52;;
37087;SDS011;23002;52.676;6.432;2023-03-30T14:11:07;8.73;;;1.23;;
37087;SDS011;23002;52.676;6.432;2023-03-30T14:13:35;9.70;;;1.40;;
37087;SDS011;23002;52.676;6.432;2023-03-30T14:16:02;13.85;;;1.90;;
37087;SDS011;23002;52.676;6.432;2023-03-30T14:18:29;7.75;;;1.60;;
37087;SDS011;23002;52.676;6.432;2023-03-30T14:20:58;9.57;;;1.38;;
37087;SDS011;23002;52.676;6.432;2023-03-30T14:23:36;10.13;;;1.55;;
37087;SDS011;23002;52.676;6.432;2023-03-30T14:26:14;7.75;;;1.33;;
37087;SDS011;23002;52.676;6.432;2023-03-30T14:28:42;5.22;;;1.70;;
37087;SDS011;23002;52.676;6.432;2023-03-30T14:31:11;8.88;;;2.15;;
37087;SDS011;23002;52.676;6.432;2023-03-30T14:33:38;14.13;;;1.70;;
37087;SDS011;23002;52.676;6.432;2023-03-30T14:36:06;10.43;;;2.15;;
37087;SDS011;23002;52.676;6.432;2023-03-30T14:38:35;18.25;;;2.67;;
37087;SDS011;23002;52.676;6.432;2023-03-30T14:43:42;11.07;;;2.35;;
37087;SDS011;23002;52.676;6.432;2023-03-30T14:46:12;20.35;;;3.13;;
37087;SDS011;23002;52.676;6.432;2023-03-30T14:48:40;9.27;;;1.42;;
37087;SDS011;23002;52.676;6.432;2023-03-30T14:51:19;15.85;;;2.40;;
37087;SDS011;23002;52.676;6.432;2023-03-30T14:53:46;10.07;;;2.00;;
37087;SDS011;23002;52.676;6.432;2023-03-30T14:56:13;7.35;;;1.90;;
37087;SDS011;23002;52.676;6.432;2023-03-30T14:58:42;9.40;;;1.95;;
37087;SDS011;23002;52.676;6.432;2023-03-30T15:01:10;8.52;;;1.77;;
37087;SDS011;23002;52.676;6.432;2023-03-30T15:03:37;12.02;;;1.40;;
37087;SDS011;23002;52.676;6.432;2023-03-30T15:06:05;9.68;;;2.17;;
37087;SDS011;23002;52.676;6.432;2023-03-30T15:08:34;11.05;;;1.45;;
37087;SDS011;23002;52.676;6.432;2023-03-30T15:11:06;14.98;;;1.42;;
37087;SDS011;23002;52.676;6.432;2023-03-30T15:13:35;7.22;;;1.98;;
37087;SDS011;23002;52.676;6.432;2023-03-30T15:16:03;9.85;;;1.27;;
37087;SDS011;23002;52.676;6.432;2023-03-30T15:18:31;8.60;;;1.25;;
37087;SDS011;23002;52.676;6.432;2023-03-30T15:20:58;8.73;;;1.52;;
37087;SDS011;23002;52.676;6.432;2023-03-30T15:23:33;8.50;;;1.90;;
37087;SDS011;23002;52.676;6.432;2023-03-30T15:26:02;8.68;;;1.50;;
37087;SDS011;23002;52.676;6.432;2023-03-30T15:28:32;9.70;;;1.30;;
37087;SDS011;23002;52.676;6.432;2023-03-30T15:31:01;12.20;;;1.52;;
37087;SDS011;23002;52.676;6.432;2023-03-30T15:33:35;11.13;;;1.30;;
37087;SDS011;23002;52.676;6.432;2023-03-30T15:36:09;6.60;;;0.90;;
37087;SDS011;23002;52.676;6.432;2023-03-30T15:39:16;9.05;;;1.98;;
37087;SDS011;23002;52.676;6.432;2023-03-30T15:44:19;8.25;;;2.05;;
37087;SDS011;23002;52.676;6.432;2023-03-30T15:46:50;5.72;;;1.35;;
37087;SDS011;23002;52.676;6.432;2023-03-30T15:49:19;8.65;;;1.60;;
37087;SDS011;23002;52.676;6.432;2023-03-30T15:51:51;10.98;;;2.28;;
37087;SDS011;23002;52.676;6.432;2023-03-30T15:54:19;8.07;;;1.37;;
37087;SDS011;23002;52.676;6.432;2023-03-30T15:56:50;9.82;;;1.65;;
37087;SDS011;23002;52.676;6.432;2023-03-30T15:59:19;8.68;;;1.52;;
37087;SDS011;23002;52.676;6.432;2023-03-30T16:01:50;7.88;;;1.65;;
37087;SDS011;23002;52.676;6.432;2023-03-30T16:04:19;10.68;;;1.38;;
37087;SDS011;23002;52.676;6.432;2023-03-30T16:06:46;3.88;;;1.17;;
37087;SDS011;23002;52.676;6.432;2023-03-30T16:09:14;6.18;;;1.15;;
37087;SDS011;23002;52.676;6.432;2023-03-30T16:11:41;8.35;;;1.33;;
37087;SDS011;23002;52.676;6.432;2023-03-30T16:14:11;9.10;;;1.98;;
37087;SDS011;23002;52.676;6.432;2023-03-30T16:16:38;9.38;;;1.00;;
37087;SDS011;23002;52.676;6.432;2023-03-30T16:19:12;8.07;;;1.15;;
37087;SDS011;23002;52.676;6.432;2023-03-30T16:21:41;12.88;;;2.17;;
37087;SDS011;23002;52.676;6.432;2023-03-30T16:24:10;8.10;;;1.38;;
37087;SDS011;23002;52.676;6.432;2023-03-30T16:26:37;6.53;;;1.30;;
37087;SDS011;23002;52.676;6.432;2023-03-30T16:29:08;11.65;;;1.80;;
37087;SDS011;23002;52.676;6.432;2023-03-30T16:31:37;9.80;;;1.63;;
37087;SDS011;23002;52.676;6.432;2023-03-30T16:34:04;11.45;;;1.63;;
37087;SDS011;23002;52.676;6.432;2023-03-30T16:36:31;5.10;;;1.10;;
37087;SDS011;23002;52.676;6.432;2023-03-30T16:38:59;13.40;;;1.50;;
37087;SDS011;23002;52.676;6.432;2023-03-30T16:41:26;5.93;;;1.38;;
37087;SDS011;23002;52.676;6.432;2023-03-30T16:43:53;13.85;;;1.98;;
37087;SDS011;23002;52.676;6.432;2023-03-30T16:46:20;9.57;;;1.73;;
37087;SDS011;23002;52.676;6.432;2023-03-30T16:48:47;10.70;;;1.90;;
37087;SDS011;23002;52.676;6.432;2023-03-30T16:51:15;11.68;;;2.15;;
37087;SDS011;23002;52.676;6.432;2023-03-30T16:53:42;4.80;;;1.77;;
37087;SDS011;23002;52.676;6.432;2023-03-30T16:56:16;11.75;;;1.83;;
37087;SDS011;23002;52.676;6.432;2023-03-30T16:58:44;5.97;;;1.83;;
37087;SDS011;23002;52.676;6.432;2023-03-30T17:01:12;8.07;;;2.13;;
37087;SDS011;23002;52.676;6.432;2023-03-30T17:03:43;11.20;;;3.58;;
37087;SDS011;23002;52.676;6.432;2023-03-30T17:06:10;8.90;;;2.53;;
37087;SDS011;23002;52.676;6.432;2023-03-30T17:08:39;8.90;;;1.58;;